Time;durP1;ratioP1;P1;durP2;ratioP2;P2;SDS_P1;SDS_P2;PMS_P1;PMS_P2;Temp;Humidity;BMP_temperature;BMP_pressure;BME280_temperature;BME280_humidity;BME280_pressure;Samples;Min_cycle;Max_cycle;Signal;HPM_P1;HPM_P2
2023/11/24 00:01:43;;;;;;;4.45;0.28;;;9.60;99.90;;;;;;6208875;22;20016;-76
2023/11/24 00:04:09;;;;;;;7.45;0.30;;;9.60;99.90;;;;;;6210386;22;20016;-78
2023/11/24 00:06:35;;;;;;;2.53;0.30;;;9.60;99.90;;;;;;6208951;22;20017;-76
2023/11/24 00:09:01;;;;;;;1.15;0.15;;;9.60;99.90;;;;;;6208320;23;20005;-76
2023/11/24 00:11:26;;;;;;;3.13;0.35;;;9.60;99.90;;;;;;6209083;22;20016;-77
2023/11/24 00:13:52;;;;;;;2.83;0.30;;;9.60;99.90;;;;;;6210127;22;20016;-77
2023/11/24 00:16:18;;;;;;;2.88;0.50;;;9.50;99.90;;;;;;6209821;22;20013;-76
2023/11/24 00:18:44;;;;;;;1.40;0.40;;;9.60;99.90;;;;;;6208608;22;20023;-76
2023/11/24 00:21:10;;;;;;;2.83;0.57;;;9.50;99.90;;;;;;6210027;22;20020;-76
2023/11/24 00:23:36;;;;;;;4.65;0.52;;;9.50;99.90;;;;;;6206832;22;20088;-77
2023/11/24 00:26:06;;;;;;;3.75;0.93;;;9.50;99.90;;;;;;6209652;22;20017;-77
2023/11/24 00:28:39;;;;;;;3.97;0.65;;;9.50;99.90;;;;;;6208887;22;20450;-77
2023/11/24 00:31:07;;;;;;;3.28;1.05;;;9.50;99.90;;;;;;6209711;22;20009;-75
2023/11/24 00:33:34;;;;;;;3.80;0.55;;;9.40;99.90;;;;;;6208421;22;20059;-76
2023/11/24 00:36:00;;;;;;;9.32;0.47;;;9.40;99.90;;;;;;6207909;23;20070;-77
2023/11/24 00:38:27;;;;;;;5.50;0.95;;;9.40;99.90;;;;;;6208259;22;20017;-77
2023/11/24 00:40:52;;;;;;;2.13;0.47;;;9.30;99.90;;;;;;6209974;22;20342;-77
2023/11/24 00:43:18;;;;;;;4.70;0.43;;;9.30;99.90;;;;;;6208082;23;20091;-77
2023/11/24 00:45:44;;;;;;;7.63;1.58;;;9.30;99.90;;;;;;6208867;22;24858;-75
2023/11/24 00:48:10;;;;;;;7.80;0.93;;;9.20;99.90;;;;;;6207519;23;20008;-77
2023/11/24 00:50:36;;;;;;;13.60;1.38;;;9.40;99.90;;;;;;6208354;22;20012;-76
2023/11/24 00:53:01;;;;;;;3.60;0.40;;;9.30;99.90;;;;;;6209506;22;20019;-76
2023/11/24 00:55:30;;;;;;;8.27;0.75;;;9.30;99.90;;;;;;6208806;22;20009;-75
2023/11/24 00:57:56;;;;;;;4.53;0.95;;;9.30;99.90;;;;;;6209631;22;19996;-77
2023/11/24 01:00:23;;;;;;;9.27;0.80;;;9.20;99.90;;;;;;6209430;23;20727;-77
2023/11/24 01:02:49;;;;;;;4.57;1.23;;;9.20;99.90;;;;;;6210509;22;20004;-76
2023/11/24 01:05:15;;;;;;;10.23;1.27;;;9.20;99.90;;;;;;6209952;23;20012;-75
2023/11/24 01:07:41;;;;;;;7.15;1.10;;;9.20;99.90;;;;;;6208440;22;20012;-77
2023/11/24 01:10:10;;;;;;;8.82;1.58;;;9.20;99.90;;;;;;6209905;23;20100;-77
2023/11/24 01:12:36;;;;;;;15.02;2.88;;;9.30;99.90;;;;;;6208797;22;20004;-75
2023/11/24 01:15:01;;;;;;;8.45;0.75;;;9.20;99.90;;;;;;6211880;22;20043;-78
2023/11/24 01:17:27;;;;;;;9.80;0.57;;;9.20;99.90;;;;;;6210390;22;20021;-77
2023/11/24 01:19:52;;;;;;;7.38;1.38;;;9.20;99.90;;;;;;6209525;23;20652;-77
2023/11/24 01:22:19;;;;;;;7.03;0.63;;;9.20;99.90;;;;;;6209733;23;20343;-77
2023/11/24 01:24:45;;;;;;;3.92;1.65;;;9.40;99.90;;;;;;6208950;22;20009;-77
2023/11/24 01:27:11;;;;;;;6.20;0.60;;;9.40;99.90;;;;;;6211417;22;20009;-76
2023/11/24 01:29:37;;;;;;;10.02;0.63;;;9.40;99.90;;;;;;6210067;22;20136;-77
2023/11/24 01:32:03;;;;;;;6.25;0.47;;;9.40;99.90;;;;;;6209844;23;20051;-77
2023/11/24 01:34:29;;;;;;;5.68;0.57;;;9.40;99.90;;;;;;6208142;22;20017;-76
2023/11/24 01:36:54;;;;;;;9.77;0.70;;;9.30;99.90;;;;;;6209491;23;20012;-75
2023/11/24 01:39:21;;;;;;;3.90;1.13;;;9.40;99.90;;;;;;6209590;23;20007;-76
2023/11/24 01:41:46;;;;;;;6.90;1.08;;;9.40;99.90;;;;;;6208131;22;20032;-77
2023/11/24 01:44:12;;;;;;;6.93;0.77;;;9.30;99.90;;;;;;6211307;22;20514;-77
2023/11/24 01:46:41;;;;;;;2.25;0.50;;;9.20;99.90;;;;;;6209884;22;20426;-77
2023/11/24 01:49:07;;;;;;;1.55;0.30;;;9.10;99.90;;;;;;6211283;22;20330;-77
2023/11/24 01:51:33;;;;;;;10.02;0.70;;;9.00;99.90;;;;;;6208516;22;20023;-77
2023/11/24 01:54:00;;;;;;;8.18;0.70;;;9.00;99.90;;;;;;6209080;23;20082;-76
2023/11/24 01:56:26;;;;;;;2.85;0.63;;;8.90;99.90;;;;;;6208027;22;20019;-76
2023/11/24 01:58:55;;;;;;;6.35;0.88;;;8.90;99.90;;;;;;6210483;22;20016;-75
2023/11/24 02:01:28;;;;;;;9.13;0.80;;;8.90;99.90;;;;;;6209031;23;20032;-76
2023/11/24 02:03:55;;;;;;;6.18;0.57;;;8.80;99.90;;;;;;6210638;22;20013;-76
2023/11/24 02:06:21;;;;;;;3.70;0.70;;;8.80;99.90;;;;;;6209528;23;20012;-77
2023/11/24 02:08:47;;;;;;;4.65;0.30;;;8.80;99.90;;;;;;6207692;22;20393;-76
2023/11/24 02:11:13;;;;;;;2.38;0.20;;;8.80;99.90;;;;;;6209022;23;20013;-76
2023/11/24 02:13:39;;;;;;;6.45;0.55;;;8.80;99.90;;;;;;6209716;22;20016;-74
2023/11/24 02:16:05;;;;;;;3.60;0.50;;;8.80;99.90;;;;;;6209160;23;20013;-75
2023/11/24 02:18:30;;;;;;;4.68;0.40;;;8.80;99.90;;;;;;6207553;22;20040;-76
2023/11/24 02:20:56;;;;;;;7.60;0.47;;;8.70;99.90;;;;;;6211160;22;20020;-77
2023/11/24 02:23:22;;;;;;;8.88;0.63;;;8.70;99.90;;;;;;6208981;23;20027;-76
2023/11/24 02:25:48;;;;;;;4.70;0.47;;;8.60;99.90;;;;;;6209569;22;20009;-76
2023/11/24 02:28:13;;;;;;;8.35;0.40;;;8.60;99.90;;;;;;6211009;22;20090;-78
2023/11/24 02:30:39;;;;;;;7.20;0.45;;;8.50;99.90;;;;;;6209699;22;20434;-76
2023/11/24 02:33:05;;;;;;;3.47;0.88;;;8.60;99.90;;;;;;6210817;22;20059;-77
2023/11/24 02:35:31;;;;;;;2.58;0.73;;;8.50;99.90;;;;;;6209292;22;20478;-77
2023/11/24 02:37:57;;;;;;;6.60;0.52;;;8.50;99.90;;;;;;6208390;23;20112;-76
2023/11/24 02:40:23;;;;;;;6.65;0.55;;;8.40;99.90;;;;;;6210775;22;20457;-77
2023/11/24 02:42:49;;;;;;;7.80;0.82;;;8.50;99.90;;;;;;6209280;22;20001;-77
2023/11/24 02:45:14;;;;;;;4.72;0.70;;;8.40;99.90;;;;;;6210889;22;20036;-77
2023/11/24 02:47:40;;;;;;;7.97;0.50;;;8.30;99.90;;;;;;6209188;22;20005;-75
2023/11/24 02:50:07;;;;;;;4.03;0.40;;;8.30;99.90;;;;;;6208706;23;20015;-77
2023/11/24 02:52:33;;;;;;;9.75;1.40;;;8.30;99.90;;;;;;6208775;22;20078;-76
2023/11/24 02:54:59;;;;;;;5.70;1.10;;;8.20;99.90;;;;;;6208598;23;20000;-77
2023/11/24 02:57:25;;;;;;;6.88;1.17;;;8.20;99.90;;;;;;6210193;22;20016;-77
2023/11/24 02:59:50;;;;;;;7.43;1.77;;;8.20;99.90;;;;;;6209708;22;20543;-76
2023/11/24 03:02:16;;;;;;;10.45;0.77;;;8.10;99.90;;;;;;6211036;22;20004;-77
2023/11/24 03:04:42;;;;;;;14.10;0.80;;;8.10;99.90;;;;;;6209529;22;20005;-76
2023/11/24 03:07:09;;;;;;;2.47;0.68;;;8.20;99.90;;;;;;6210451;22;20001;-76
2023/11/24 03:09:35;;;;;;;7.30;0.80;;;8.30;99.90;;;;;;6207729;22;20009;-77
2023/11/24 03:12:02;;;;;;;5.95;0.68;;;8.30;99.90;;;;;;6208927;23;20005;-76
2023/11/24 03:14:29;;;;;;;8.18;1.40;;;8.30;99.90;;;;;;6207566;22;20062;-77
2023/11/24 03:16:55;;;;;;;9.68;0.98;;;8.40;99.90;;;;;;6210295;22;20004;-76
2023/11/24 03:19:21;;;;;;;14.77;1.90;;;8.40;99.90;;;;;;6208797;23;20008;-75
2023/11/24 03:21:47;;;;;;;7.22;0.80;;;8.40;99.90;;;;;;6209328;22;20008;-77
2023/11/24 03:24:13;;;;;;;5.07;0.68;;;8.40;99.90;;;;;;6208794;23;20020;-76
2023/11/24 03:26:39;;;;;;;8.20;0.70;;;8.40;99.90;;;;;;6209145;22;20008;-77
2023/11/24 03:29:05;;;;;;;7.43;0.75;;;8.40;99.90;;;;;;6210208;22;20023;-76
2023/11/24 03:31:31;;;;;;;8.38;0.80;;;8.40;99.90;;;;;;6208781;22;20016;-75
2023/11/24 03:33:57;;;;;;;10.85;1.30;;;8.40;99.90;;;;;;6208380;23;20005;-75
2023/11/24 03:36:22;;;;;;;8.80;0.95;;;8.30;99.90;;;;;;6210146;22;20044;-77
2023/11/24 03:38:48;;;;;;;5.38;0.68;;;8.40;99.90;;;;;;6208883;22;20036;-77
2023/11/24 03:41:14;;;;;;;7.88;1.67;;;8.30;99.90;;;;;;6210123;22;20093;-77
2023/11/24 03:43:40;;;;;;;10.98;0.52;;;8.30;99.90;;;;;;6208372;22;20040;-77
2023/11/24 03:46:06;;;;;;;17.52;1.38;;;8.30;99.90;;;;;;6209887;22;20350;-77
2023/11/24 03:48:31;;;;;;;4.93;0.70;;;8.20;99.90;;;;;;6208379;22;20009;-76
2023/11/24 03:50:58;;;;;;;11.38;1.10;;;8.20;99.90;;;;;;6208094;23;20016;-77
2023/11/24 03:53:24;;;;;;;16.25;1.55;;;8.20;99.90;;;;;;6209958;22;20016;-76
2023/11/24 03:55:50;;;;;;;17.42;1.50;;;8.20;99.90;;;;;;6206692;23;20014;-77
2023/11/24 03:58:15;;;;;;;6.65;1.75;;;8.20;99.90;;;;;;6209189;22;20083;-77
2023/11/24 04:00:42;;;;;;;7.50;0.77;;;8.20;99.90;;;;;;6207996;22;20013;-77
2023/11/24 04:03:08;;;;;;;13.23;1.80;;;8.20;99.90;;;;;;6209126;23;20317;-77
2023/11/24 04:05:34;;;;;;;8.70;1.00;;;8.20;99.90;;;;;;6208547;22;20009;-77
2023/11/24 04:07:59;;;;;;;4.70;0.90;;;8.20;99.90;;;;;;6208470;23;19997;-76
2023/11/24 04:10:25;;;;;;;11.05;1.55;;;8.10;99.90;;;;;;6209970;22;20020;-76
2023/11/24 04:12:51;;;;;;;5.38;2.03;;;8.00;99.90;;;;;;6208943;22;20004;-76
2023/11/24 04:15:17;;;;;;;10.32;0.85;;;7.90;99.90;;;;;;6207128;23;20013;-75
2023/11/24 04:17:42;;;;;;;9.73;1.52;;;7.80;99.90;;;;;;6206898;22;20043;-75
2023/11/24 04:20:09;;;;;;;8.70;1.35;;;7.80;99.90;;;;;;6210142;22;20012;-77
2023/11/24 04:22:36;;;;;;;8.00;1.13;;;7.70;99.90;;;;;;6208702;22;20009;-77
2023/11/24 04:25:04;;;;;;;5.80;0.95;;;7.70;99.90;;;;;;6208661;23;20035;-75
2023/11/24 04:27:30;;;;;;;5.22;1.00;;;7.70;99.90;;;;;;6208385;22;20013;-77
2023/11/24 04:29:56;;;;;;;7.25;0.40;;;7.70;99.90;;;;;;6210018;22;20103;-77
2023/11/24 04:32:22;;;;;;;7.95;1.20;;;7.70;99.90;;;;;;6209890;22;20454;-77
2023/11/24 04:34:47;;;;;;;18.02;1.63;;;7.60;99.90;;;;;;6210647;22;20012;-77
2023/11/24 04:37:13;;;;;;;6.53;0.93;;;7.80;99.90;;;;;;6210264;23;20043;-78
2023/11/24 04:39:39;;;;;;;14.20;1.38;;;7.80;99.90;;;;;;6208929;22;20058;-76
2023/11/24 04:42:06;;;;;;;8.85;0.60;;;7.90;99.90;;;;;;6210484;23;20004;-78
2023/11/24 04:44:32;;;;;;;5.85;0.80;;;7.90;99.90;;;;;;6210360;22;20001;-77
2023/11/24 04:46:59;;;;;;;9.82;0.88;;;7.80;99.90;;;;;;6210271;23;20055;-77
2023/11/24 04:49:25;;;;;;;5.55;1.25;;;7.80;99.90;;;;;;6210249;23;20016;-77
2023/11/24 04:51:51;;;;;;;5.43;0.40;;;7.70;99.90;;;;;;6209203;23;20005;-76
2023/11/24 04:54:16;;;;;;;5.43;0.90;;;7.60;99.90;;;;;;6210019;23;20001;-77
2023/11/24 04:56:42;;;;;;;5.88;0.98;;;7.50;99.90;;;;;;6210220;22;20023;-76
2023/11/24 04:59:08;;;;;;;11.68;1.02;;;7.40;99.90;;;;;;6210157;23;20371;-76
2023/11/24 05:01:33;;;;;;;13.05;0.55;;;7.40;99.90;;;;;;6210481;22;20023;-76
2023/11/24 05:03:59;;;;;;;7.13;0.68;;;7.40;99.90;;;;;;6211741;22;20004;-76
2023/11/24 05:06:25;;;;;;;5.88;0.85;;;7.40;99.90;;;;;;6212066;22;20040;-75
2023/11/24 05:08:51;;;;;;;13.18;1.52;;;7.40;99.90;;;;;;6210188;22;20545;-76
2023/11/24 05:11:18;;;;;;;7.47;1.02;;;7.40;99.90;;;;;;6210394;23;20016;-78
2023/11/24 05:13:44;;;;;;;4.65;0.90;;;7.50;99.90;;;;;;6209354;22;20092;-77
2023/11/24 05:16:10;;;;;;;6.63;1.02;;;7.50;99.90;;;;;;6212391;22;20015;-77
2023/11/24 05:18:36;;;;;;;2.47;0.40;;;7.50;99.90;;;;;;6211256;22;20013;-79
2023/11/24 05:21:02;;;;;;;5.05;0.85;;;7.40;99.90;;;;;;6194790;22;20497;-73
2023/11/24 05:23:27;;;;;;;8.50;0.73;;;7.50;99.90;;;;;;6207192;22;20440;-72
2023/11/24 05:25:53;;;;;;;2.33;0.98;;;7.50;99.90;;;;;;6210745;23;20331;-72
2023/11/24 05:28:18;;;;;;;7.93;0.70;;;7.40;99.90;;;;;;6210537;23;20020;-73
2023/11/24 05:30:44;;;;;;;4.13;0.75;;;7.40;99.90;;;;;;6215333;23;20012;-73
2023/11/24 05:33:10;;;;;;;5.40;1.42;;;7.40;99.90;;;;;;6212722;23;20004;-71
2023/11/24 05:35:37;;;;;;;5.18;0.65;;;7.40;99.90;;;;;;6208945;23;20011;-72
2023/11/24 05:38:03;;;;;;;5.43;0.63;;;7.40;99.90;;;;;;6210308;23;20054;-72
2023/11/24 05:40:29;;;;;;;5.43;1.25;;;7.40;99.90;;;;;;6207285;23;20380;-72
2023/11/24 05:42:54;;;;;;;15.70;1.90;;;7.40;99.90;;;;;;6210171;23;20004;-73
2023/11/24 05:45:20;;;;;;;15.10;1.23;;;7.40;99.90;;;;;;6209565;23;20009;-72
2023/11/24 05:47:45;;;;;;;8.20;0.88;;;7.30;99.90;;;;;;6209307;23;21938;-71
2023/11/24 05:50:17;;;;;;;7.22;0.98;;;7.30;99.90;;;;;;6209892;23;20043;-72
2023/11/24 05:52:43;;;;;;;8.27;1.20;;;7.30;99.90;;;;;;6208286;23;20012;-74
2023/11/24 05:55:09;;;;;;;6.68;1.13;;;7.20;99.90;;;;;;6210072;23;20015;-72
2023/11/24 05:57:34;;;;;;;13.15;1.30;;;7.20;99.90;;;;;;6208916;23;20012;-74
2023/11/24 06:00:00;;;;;;;8.52;1.52;;;7.20;99.90;;;;;;6210247;23;20009;-74
2023/11/24 06:02:25;;;;;;;5.85;0.60;;;7.20;99.90;;;;;;6211502;23;20030;-72
2023/11/24 06:04:51;;;;;;;8.43;1.13;;;7.30;99.90;;;;;;6209491;23;20578;-73
2023/11/24 06:07:17;;;;;;;13.18;3.22;;;7.30;99.90;;;;;;6209854;23;20473;-74
2023/11/24 06:09:43;;;;;;;10.05;1.52;;;7.30;99.90;;;;;;6208502;23;20020;-73
2023/11/24 06:12:09;;;;;;;8.80;0.90;;;7.20;99.90;;;;;;6210668;23;20079;-72
2023/11/24 06:14:38;;;;;;;10.05;1.70;;;7.10;99.90;;;;;;6209371;23;20009;-73
2023/11/24 06:17:05;;;;;;;7.68;0.88;;;7.10;99.90;;;;;;6212340;23;20111;-73
2023/11/24 06:19:30;;;;;;;4.57;0.70;;;7.10;99.90;;;;;;6214941;23;20027;-72
2023/11/24 06:21:56;;;;;;;8.95;1.15;;;7.10;99.90;;;;;;6214670;23;20012;-73
2023/11/24 06:24:21;;;;;;;7.88;0.82;;;7.00;99.90;;;;;;6209603;23;20438;-75
2023/11/24 06:26:47;;;;;;;11.15;0.93;;;7.00;99.90;;;;;;6210322;23;20009;-72
2023/11/24 06:29:14;;;;;;;7.70;1.38;;;7.10;99.90;;;;;;6209136;23;20016;-72
2023/11/24 06:31:40;;;;;;;10.05;1.27;;;7.10;99.90;;;;;;6208182;23;20013;-72
2023/11/24 06:34:06;;;;;;;8.43;1.95;;;7.10;99.90;;;;;;6211486;23;20019;-72
2023/11/24 06:36:31;;;;;;;11.85;1.67;;;7.00;99.90;;;;;;6208065;23;20016;-72
2023/11/24 06:38:57;;;;;;;10.45;0.77;;;6.90;99.90;;;;;;6208747;23;20107;-72
2023/11/24 06:41:23;;;;;;;5.35;0.95;;;6.80;99.90;;;;;;6208949;23;20013;-73
2023/11/24 06:43:49;;;;;;;8.27;0.93;;;6.80;99.90;;;;;;6206973;23;20055;-72
2023/11/24 06:46:14;;;;;;;14.93;1.80;;;6.80;99.90;;;;;;6210566;23;20021;-73
2023/11/24 06:48:40;;;;;;;14.00;1.60;;;6.80;99.90;;;;;;6205658;23;20482;-72
2023/11/24 06:51:07;;;;;;;10.70;1.63;;;6.80;99.90;;;;;;6208724;23;20012;-73
2023/11/24 06:53:32;;;;;;;6.90;1.25;;;6.70;99.90;;;;;;6208047;23;20036;-72
2023/11/24 06:55:58;;;;;;;11.85;1.55;;;6.70;99.90;;;;;;6209343;23;20320;-73
2023/11/24 06:58:24;;;;;;;15.93;1.23;;;6.60;99.90;;;;;;6210325;23;20021;-73
2023/11/24 07:00:51;;;;;;;13.75;1.10;;;6.60;99.90;;;;;;6208266;23;20035;-72
2023/11/24 07:03:17;;;;;;;9.88;1.33;;;6.60;99.90;;;;;;6209561;23;20450;-73
2023/11/24 07:05:43;;;;;;;6.78;0.85;;;6.60;99.90;;;;;;6209502;23;20035;-74
2023/11/24 07:08:12;;;;;;;12.35;0.93;;;6.70;99.90;;;;;;6213416;23;20037;-74
2023/11/24 07:10:37;;;;;;;23.67;2.22;;;6.70;99.90;;;;;;6208949;23;20465;-73
2023/11/24 07:13:03;;;;;;;12.73;1.10;;;6.80;99.90;;;;;;6209937;23;20005;-75
2023/11/24 07:15:29;;;;;;;9.32;1.48;;;6.80;99.90;;;;;;6207772;23;20012;-73
2023/11/24 07:17:55;;;;;;;8.15;1.23;;;6.80;99.90;;;;;;6208715;23;20503;-72
2023/11/24 07:20:21;;;;;;;3.30;0.60;;;6.80;99.90;;;;;;6209039;23;20515;-73
2023/11/24 07:22:47;;;;;;;5.82;0.70;;;6.80;99.90;;;;;;6207121;23;20066;-73
2023/11/24 07:25:14;;;;;;;12.40;1.63;;;6.70;99.90;;;;;;6208322;23;20079;-73
2023/11/24 07:27:41;;;;;;;5.68;0.50;;;6.70;99.90;;;;;;6207423;23;20389;-73
2023/11/24 07:30:08;;;;;;;2.58;0.65;;;6.60;99.90;;;;;;6208378;23;20078;-73
2023/11/24 07:32:33;;;;;;;5.88;0.70;;;6.60;99.90;;;;;;6207567;23;20020;-72
2023/11/24 07:34:59;;;;;;;9.73;0.80;;;6.50;99.90;;;;;;6208335;23;20019;-72
2023/11/24 07:37:26;;;;;;;3.72;1.27;;;6.60;99.90;;;;;;6208665;23;20040;-71
2023/11/24 07:39:52;;;;;;;2.40;0.40;;;6.60;99.90;;;;;;6207874;23;20008;-73
2023/11/24 07:42:18;;;;;;;9.68;1.42;;;6.60;99.90;;;;;;6209006;23;20449;-72
2023/11/24 07:44:44;;;;;;;4.03;0.38;;;6.60;99.90;;;;;;6207312;23;20013;-72
2023/11/24 07:47:14;;;;;;;8.35;1.85;;;6.60;99.90;;;;;;6208648;23;20008;-72
2023/11/24 07:49:40;;;;;;;4.65;1.52;;;6.70;99.90;;;;;;6208299;23;20027;-71
2023/11/24 07:52:06;;;;;;;4.82;0.50;;;6.70;99.90;;;;;;6209690;23;20391;-72
2023/11/24 07:54:31;;;;;;;6.63;0.60;;;6.80;99.90;;;;;;6210663;23;20040;-74
2023/11/24 07:56:57;;;;;;;12.45;1.35;;;6.80;99.90;;;;;;6210432;23;20028;-74
2023/11/24 07:59:25;;;;;;;5.78;0.77;;;6.80;99.90;;;;;;6207653;23;20008;-73
2023/11/24 08:01:51;;;;;;;3.20;0.50;;;6.80;99.90;;;;;;6205081;23;20020;-73
2023/11/24 08:04:17;;;;;;;9.35;1.52;;;6.80;99.90;;;;;;6206478;23;20398;-72
2023/11/24 08:06:42;;;;;;;6.45;0.80;;;6.80;99.90;;;;;;6205495;23;20020;-74
2023/11/24 08:09:08;;;;;;;8.35;1.35;;;6.80;99.90;;;;;;6206110;23;20012;-73
2023/11/24 08:11:34;;;;;;;7.13;1.02;;;6.80;99.90;;;;;;6203877;23;20009;-76
2023/11/24 08:14:00;;;;;;;8.20;1.50;;;6.80;99.90;;;;;;6206660;23;20016;-73
2023/11/24 08:16:26;;;;;;;2.65;0.57;;;6.90;99.90;;;;;;6206580;23;20079;-73
2023/11/24 08:18:52;;;;;;;4.10;1.00;;;6.90;99.90;;;;;;6206935;23;20113;-74
2023/11/24 08:21:18;;;;;;;4.15;0.30;;;6.90;99.90;;;;;;6209076;23;20549;-73
2023/11/24 08:23:44;;;;;;;7.82;1.25;;;6.90;99.90;;;;;;6205887;23;20020;-72
2023/11/24 08:26:23;;;;;;;3.72;0.40;;;6.90;99.90;;;;;;6232674;22;20016;-73
2023/11/24 08:28:49;;;;;;;5.97;1.52;;;6.80;99.90;;;;;;6231161;22;20056;-73
2023/11/24 08:31:19;;;;;;;7.25;0.40;;;6.70;99.90;;;;;;6207155;23;20477;-75
2023/11/24 08:33:45;;;;;;;4.90;0.50;;;6.70;99.90;;;;;;6205898;23;20082;-72
2023/11/24 08:36:12;;;;;;;7.63;0.70;;;6.70;99.90;;;;;;6207540;23;20020;-73
2023/11/24 08:38:38;;;;;;;5.90;0.55;;;6.70;99.90;;;;;;6207745;22;20352;-74
2023/11/24 08:41:14;;;;;;;2.42;1.02;;;6.70;99.90;;;;;;6207932;23;20450;-73
2023/11/24 08:43:40;;;;;;;1.52;0.32;;;6.50;99.90;;;;;;6209599;22;20016;-72
2023/11/24 08:46:08;;;;;;;1.80;0.47;;;6.50;99.90;;;;;;6211714;23;20092;-73
2023/11/24 08:48:39;;;;;;;3.67;0.90;;;6.40;99.90;;;;;;6208001;22;20009;-72
2023/11/24 08:51:10;;;;;;;2.13;0.40;;;6.40;99.90;;;;;;6207821;23;20446;-72
2023/11/24 08:53:36;;;;;;;9.40;0.70;;;6.50;99.90;;;;;;6206142;23;20012;-73
2023/11/24 08:56:05;;;;;;;6.55;1.05;;;6.50;99.90;;;;;;6208731;23;20009;-74
2023/11/24 08:58:32;;;;;;;8.27;1.10;;;6.50;99.90;;;;;;6205791;23;20039;-73
2023/11/24 09:00:58;;;;;;;4.82;0.40;;;6.60;99.90;;;;;;6206814;23;20092;-72
2023/11/24 09:03:26;;;;;;;1.85;0.25;;;6.60;99.90;;;;;;6206789;23;20023;-73
2023/11/24 09:05:52;;;;;;;3.53;0.50;;;6.80;99.90;;;;;;6208118;23;20083;-74
2023/11/24 09:08:19;;;;;;;6.72;0.80;;;6.80;99.90;;;;;;6208988;22;20016;-73
2023/11/24 09:10:45;;;;;;;2.70;0.57;;;6.90;99.90;;;;;;6231375;22;20004;-72
2023/11/24 09:13:14;;;;;;;8.02;0.32;;;6.90;99.90;;;;;;6206711;22;20079;-74
2023/11/24 09:15:41;;;;;;;6.38;1.00;;;6.80;99.90;;;;;;6205571;23;20009;-72
2023/11/24 09:18:07;;;;;;;3.05;0.63;;;6.80;99.90;;;;;;6209308;23;20004;-73
2023/11/24 09:20:33;;;;;;;3.83;1.10;;;6.60;99.90;;;;;;6206542;23;20031;-73
2023/11/24 09:22:58;;;;;;;3.38;0.32;;;6.50;99.90;;;;;;6209888;23;20008;-72
2023/11/24 09:25:24;;;;;;;7.45;0.60;;;6.40;99.90;;;;;;6209231;23;20005;-71
2023/11/24 09:27:50;;;;;;;4.05;0.63;;;6.40;99.90;;;;;;6208517;23;20143;-73
2023/11/24 09:30:16;;;;;;;1.02;0.28;;;6.50;99.90;;;;;;6212271;22;20012;-72
2023/11/24 09:32:41;;;;;;;2.80;0.40;;;6.70;99.90;;;;;;6213995;23;20020;-72
2023/11/24 09:35:08;;;;;;;1.50;0.32;;;6.60;99.90;;;;;;6215056;23;20025;-72
2023/11/24 09:37:34;;;;;;;6.25;0.95;;;6.60;99.90;;;;;;6210190;23;20485;-73
2023/11/24 09:40:02;;;;;;;5.88;0.60;;;6.40;99.90;;;;;;6210875;22;20466;-73
2023/11/24 09:42:32;;;;;;;10.27;1.42;;;6.30;99.90;;;;;;6207632;23;20403;-73
2023/11/24 09:45:02;;;;;;;10.85;1.85;;;6.20;99.90;;;;;;6208829;23;20008;-72
2023/11/24 09:47:27;;;;;;;8.43;1.52;;;6.20;99.90;;;;;;6208803;23;20004;-73
2023/11/24 09:49:55;;;;;;;7.18;0.50;;;6.20;99.90;;;;;;6208245;23;20088;-73
2023/11/24 09:52:24;;;;;;;16.48;1.73;;;6.20;99.90;;;;;;6208832;23;20028;-74
2023/11/24 09:54:53;;;;;;;12.57;1.55;;;6.30;99.90;;;;;;6207098;23;20434;-73
2023/11/24 09:57:19;;;;;;;12.02;2.95;;;6.40;99.90;;;;;;6207064;23;20015;-74
2023/11/24 09:59:45;;;;;;;7.55;0.80;;;6.40;99.90;;;;;;6206280;23;20047;-75
2023/11/24 10:02:17;;;;;;;6.70;1.05;;;6.60;99.90;;;;;;6207660;23;20020;-72
2023/11/24 10:04:43;;;;;;;12.25;1.83;;;6.60;99.90;;;;;;6206734;23;20047;-72
2023/11/24 10:07:21;;;;;;;8.30;1.35;;;6.70;99.90;;;;;;6204926;23;20024;-73
2023/11/24 10:09:50;;;;;;;7.80;1.02;;;6.80;99.90;;;;;;6207248;23;20017;-73
2023/11/24 10:12:17;;;;;;;11.18;1.13;;;6.90;99.90;;;;;;6207931;23;20015;-73
2023/11/24 10:14:43;;;;;;;6.82;1.40;;;7.10;99.90;;;;;;6205892;23;20012;-72
2023/11/24 10:17:13;;;;;;;4.93;1.25;;;7.30;99.90;;;;;;6207253;23;20397;-72
2023/11/24 10:19:38;;;;;;;7.70;1.77;;;7.40;99.90;;;;;;6208609;23;20538;-72
2023/11/24 10:22:04;;;;;;;10.43;1.17;;;7.40;99.90;;;;;;6212765;23;20088;-73
2023/11/24 10:24:37;;;;;;;13.73;1.63;;;7.20;99.90;;;;;;6212155;23;20031;-74
2023/11/24 10:27:20;;;;;;;4.13;0.50;;;7.00;99.90;;;;;;6207914;23;20023;-73
2023/11/24 10:29:48;;;;;;;5.28;0.73;;;6.70;99.90;;;;;;6207706;23;20021;-72
2023/11/24 10:32:14;;;;;;;4.10;1.40;;;6.50;99.90;;;;;;6210074;23;20034;-73
2023/11/24 10:34:42;;;;;;;4.68;0.63;;;6.30;99.90;;;;;;6207750;23;20012;-73
2023/11/24 10:37:10;;;;;;;7.13;0.60;;;6.20;99.90;;;;;;6208372;23;20096;-73
2023/11/24 10:39:39;;;;;;;9.93;0.90;;;6.00;99.90;;;;;;6207180;23;20009;-73
2023/11/24 10:42:08;;;;;;;11.48;1.83;;;5.90;99.90;;;;;;6208425;23;20012;-72
2023/11/24 10:44:39;;;;;;;7.82;0.77;;;5.80;99.90;;;;;;6207134;23;20354;-73
2023/11/24 10:47:08;;;;;;;5.03;1.08;;;5.80;99.90;;;;;;6208128;23;20013;-73
2023/11/24 10:49:44;;;;;;;11.68;1.23;;;6.00;99.90;;;;;;6232266;22;20718;-74
2023/11/24 10:52:25;;;;;;;7.63;0.70;;;6.50;99.90;;;;;;6207703;23;20020;-73
2023/11/24 10:55:00;;;;;;;4.65;1.30;;;6.90;99.90;;;;;;6196494;23;20011;-74
2023/11/24 10:57:30;;;;;;;12.10;1.45;;;7.00;99.90;;;;;;6208842;23;20063;-73
2023/11/24 10:59:57;;;;;;;10.75;1.67;;;6.90;99.90;;;;;;6207085;23;20338;-73
2023/11/24 11:02:25;;;;;;;8.43;1.65;;;6.80;99.90;;;;;;6207413;23;20008;-72
2023/11/24 11:04:59;;;;;;;10.10;1.33;;;6.60;99.90;;;;;;6205110;23;20016;-73
2023/11/24 11:07:52;;;;;;;8.10;1.33;;;6.60;99.90;;;;;;6207662;23;20497;-73
2023/11/24 11:10:25;;;;;;;14.00;2.17;;;6.90;99.90;;;;;;6209673;23;20431;-72
2023/11/24 11:12:54;;;;;;;9.13;1.45;;;7.40;99.90;;;;;;6208566;23;20008;-75
2023/11/24 11:15:24;;;;;;;18.75;2.13;;;7.90;99.90;;;;;;6209921;23;20013;-73
2023/11/24 11:18:06;;;;;;;14.45;1.58;;;8.10;99.90;;;;;;6231527;22;20454;-73
2023/11/24 11:23:18;;;;;;;8.10;0.75;;;7.70;99.90;;;;;;6168031;22;20110;-75
2023/11/24 11:25:51;;;;;;;7.60;1.25;;;7.50;99.90;;;;;;6206288;22;20040;-76
2023/11/24 11:28:22;;;;;;;10.10;1.67;;;7.30;99.90;;;;;;6207093;23;20017;-77
2023/11/24 11:30:47;;;;;;;;;;;7.10;99.90;;;;;;6208535;22;20015;-77
2023/11/24 11:33:13;;;;;;;19.40;2.03;;;7.00;99.90;;;;;;6207646;23;19904;-76
2023/11/24 11:35:44;;;;;;;18.13;2.40;;;6.90;99.90;;;;;;6205719;23;20020;-76
2023/11/24 11:38:13;;;;;;;13.32;2.25;;;6.90;99.90;;;;;;6207230;23;20012;-77
2023/11/24 11:40:44;;;;;;;11.25;2.05;;;7.00;99.90;;;;;;6205791;23;20407;-77
2023/11/24 11:43:14;;;;;;;6.38;1.25;;;6.90;99.90;;;;;;6208992;23;20103;-76
2023/11/24 11:45:51;;;;;;;10.68;1.73;;;7.00;99.90;;;;;;6206201;23;20023;-75
2023/11/24 11:48:17;;;;;;;14.30;2.00;;;7.10;99.90;;;;;;6207007;23;20007;-76
2023/11/24 11:51:00;;;;;;;11.07;2.20;;;7.20;99.90;;;;;;6207310;23;20020;-76
2023/11/24 11:53:28;;;;;;;7.00;1.35;;;7.20;99.90;;;;;;6207103;23;20071;-76
2023/11/24 11:56:07;;;;;;;8.30;1.48;;;7.30;99.90;;;;;;6206113;23;20019;-76
2023/11/24 11:58:34;;;;;;;9.15;1.52;;;7.40;99.90;;;;;;6204440;23;20013;-76
2023/11/24 12:01:05;;;;;;;9.05;1.27;;;7.50;99.90;;;;;;6205300;23;20040;-77
2023/11/24 12:03:34;;;;;;;16.13;3.33;;;7.50;99.90;;;;;;6201549;23;20054;-77
2023/11/24 12:06:05;;;;;;;8.23;1.00;;;7.70;99.90;;;;;;6206157;23;20482;-75
2023/11/24 12:08:32;;;;;;;10.07;2.22;;;7.70;99.90;;;;;;6205444;23;20012;-76
2023/11/24 12:10:58;;;;;;;12.88;1.30;;;7.70;99.90;;;;;;6208781;23;20075;-76
2023/11/24 12:13:24;;;;;;;10.27;1.30;;;7.80;99.90;;;;;;6206895;23;20043;-76
2023/11/24 12:15:51;;;;;;;9.13;0.93;;;7.80;99.90;;;;;;6205597;23;20438;-76
2023/11/24 12:18:18;;;;;;;21.52;2.55;;;7.80;99.90;;;;;;6207060;23;20008;-78
2023/11/24 12:20:49;;;;;;;12.73;1.98;;;7.90;99.90;;;;;;6207078;23;20087;-78
2023/11/24 12:23:15;;;;;;;13.77;2.00;;;7.90;99.90;;;;;;6208366;23;20013;-78
2023/11/24 12:25:43;;;;;;;12.63;2.00;;;7.90;99.90;;;;;;6205735;23;20036;-76
2023/11/24 12:28:10;;;;;;;5.00;1.30;;;7.90;99.90;;;;;;6208742;23;20005;-76
2023/11/24 12:30:41;;;;;;;17.17;1.77;;;7.90;99.90;;;;;;6205896;23;20588;-77
2023/11/24 12:33:24;;;;;;;9.82;2.30;;;7.90;99.90;;;;;;6209466;23;20561;-77
2023/11/24 12:35:54;;;;;;;5.70;1.10;;;8.00;99.90;;;;;;6206160;23;20105;-75
2023/11/24 12:38:21;;;;;;;8.20;2.63;;;8.00;99.90;;;;;;6207260;23;20016;-77
2023/11/24 12:40:49;;;;;;;19.52;1.95;;;8.10;99.90;;;;;;6203378;23;20017;-75
2023/11/24 12:43:17;;;;;;;10.77;2.00;;;8.30;99.90;;;;;;6207792;23;20016;-77
2023/11/24 12:45:43;;;;;;;11.75;1.15;;;8.40;99.90;;;;;;6204997;23;20023;-76
2023/11/24 12:48:34;;;;;;;14.85;2.53;;;8.40;99.90;;;;;;6205957;23;20005;-76
2023/11/24 12:51:00;;;;;;;18.08;2.35;;;8.40;99.90;;;;;;6205546;23;20082;-77
2023/11/24 12:53:28;;;;;;;11.18;1.55;;;8.50;99.90;;;;;;6205481;23;20058;-77
2023/11/24 12:55:54;;;;;;;15.93;2.60;;;8.60;99.90;;;;;;6205977;23;20008;-76
2023/11/24 12:58:20;;;;;;;13.55;1.40;;;8.70;99.90;;;;;;6209461;23;20009;-77